TimeEDT,TemperatureF,Dew PointF,Humidity,Sea Level PressureIn,VisibilityMPH,Wind Direction,Wind SpeedMPH,Gust SpeedMPH,PrecipitationIn,Events,Conditions,WindDirDegrees,DateUTC
12:53 AM,59.0,55.9,90,30.03,10.0,Calm,Calm,-,N/A,,Clear,0,2013-03-20 04:53:00
1:53 AM,57.9,54.0,87,30.01,10.0,North,5.8,-,N/A,,Scattered Clouds,350,2013-03-20 05:53:00
2:53 AM,59.0,48.0,67,30.00,10.0,North,8.1,-,N/A,,Partly Cloudy,10,2013-03-20 06:53:00
3:53 AM,60.1,43.0,53,29.98,10.0,NNE,10.4,-,N/A,,Partly Cloudy,20,2013-03-20 07:53:00
4:53 AM,59.0,41.0,51,29.97,10.0,NNE,9.2,-,N/A,,Mostly Cloudy,30,2013-03-20 08:53:00
5:53 AM,59.0,37.9,46,30.00,10.0,North,9.2,-,N/A,,Overcast,10,2013-03-20 09:53:00
6:53 AM,59.0,37.9,46,30.03,10.0,NNE,10.4,-,N/A,,Overcast,20,2013-03-20 10:53:00
7:53 AM,57.9,37.0,46,30.08,10.0,NNW,10.4,-,0.00,Rain,Light Rain,340,2013-03-20 11:53:00
8:53 AM,54.0,41.0,62,30.08,10.0,North,9.2,-,0.01,,Scattered Clouds,10,2013-03-20 12:53:00
9:04 AM,55.4,41.0,58,30.08,10.0,Variable,5.8,-,N/A,Thunderstorm,Thunderstorm,0,2013-03-20 13:04:00
9:53 AM,57.0,37.0,47,30.07,10.0,NNE,16.1,-,N/A,,Partly Cloudy,20,2013-03-20 13:53:00
10:53 AM,62.1,33.1,34,30.08,-9999.0,NNE,15.0,-,N/A,,Partly Cloudy,20,2013-03-20 14:53:00
11:53 AM,66.0,33.1,29,30.07,10.0,NE,13.8,-,N/A,,Clear,40,2013-03-20 15:53:00
12:53 PM,66.9,34.0,30,30.07,10.0,North,10.4,-,N/A,,Clear,350,2013-03-20 16:53:00
1:53 PM,69.1,36.0,30,30.03,10.0,NNE,9.2,-,N/A,,Clear,20,2013-03-20 17:53:00
2:53 PM,64.9,41.0,42,30.03,10.0,NNW,4.6,-,N/A,,Overcast,330,2013-03-20 18:53:00
3:53 PM,64.9,42.1,43,30.01,10.0,NNW,6.9,-,0.00,,Mostly Cloudy,330,2013-03-20 19:53:00
4:53 PM,66.0,37.9,36,30.00,10.0,NNW,12.7,-,N/A,,Partly Cloudy,340,2013-03-20 20:53:00
5:53 PM,66.9,34.0,30,29.98,10.0,North,11.5,-,N/A,,Clear,350,2013-03-20 21:53:00
6:53 PM,66.0,37.0,34,29.96,10.0,NNW,10.4,-,N/A,,Clear,330,2013-03-20 22:53:00
7:53 PM,60.1,37.0,42,29.98,10.0,NW,6.9,-,N/A,,Clear,320,2013-03-20 23:53:00
8:53 PM,53.1,39.0,59,30.00,10.0,NW,5.8,-,N/A,,Clear,310,2013-03-21 00:53:00
9:53 PM,51.1,37.0,59,30.02,10.0,NW,4.6,-,N/A,,Clear,310,2013-03-21 01:53:00
10:53 PM,48.9,37.0,64,30.03,10.0,NW,3.5,-,N/A,,Clear,310,2013-03-21 02:53:00
11:53 PM,48.0,37.0,66,30.04,10.0,NW,6.9,-,N/A,,Clear,310,2013-03-21 03:53:00